Terminal Aerodrome Forecast
Issued by NWS Twin Cities, MN

Home | Current Version | Previous Version | Graphics & Text | Print | Product List | Glossary On
Versions: 1 2 3 4 5 6 7 8 9 10 11 12 13 14 15 16 17 18 19 20 21 22 23 24 25 26 27
611
FTUS43 KMPX 031503 AAB
TAFMSP
TAF AMD
KMSP 031503Z 0315/0418 34015G21KT 6SM BLSN SCT018 OVC040
      TEMPO 0315/0316 4SM -SN BLSN BKN030
     FM031700 32013G20KT P6SM BKN040
     FM032100 31012KT P6SM SCT040 BKN200
     FM040000 28007KT P6SM BKN150
     FM040600 23005KT P6SM BKN100 PROB30 0412/0418 4SM -SN BKN020=

USA.gov is the U.S. government's official web portal to all federal, state and local government web resources and services.